createdAt,value
2022-12-16T00:01:22.948Z,-0.39
2022-12-16T00:03:52.818Z,-0.28
2022-12-16T00:06:25.694Z,-0.35
2022-12-16T00:08:55.111Z,-0.38
2022-12-16T00:11:23.638Z,-0.38
2022-12-16T00:13:53.450Z,-0.51
2022-12-16T00:16:23.285Z,-0.72
2022-12-16T00:18:52.437Z,-0.71
2022-12-16T00:21:20.961Z,-0.88
2022-12-16T00:23:49.229Z,-0.95
2022-12-16T00:26:17.215Z,-0.95
2022-12-16T00:28:47.327Z,-0.99
2022-12-16T00:31:17.373Z,-1.11
2022-12-16T00:33:45.611Z,-1.06
2022-12-16T00:36:14.806Z,-1.18
2022-12-16T00:38:43.879Z,-1.31
2022-12-16T00:41:11.709Z,-1.35
2022-12-16T00:43:40.853Z,-1.36
2022-12-16T00:46:09.269Z,-1.23
2022-12-16T00:48:43.581Z,-1.34
2022-12-16T00:51:11.604Z,-1.17
2022-12-16T00:53:39.917Z,-1.20
2022-12-16T00:56:11.514Z,-1.27
2022-12-16T00:58:39.607Z,-1.27
2022-12-16T01:01:10.007Z,-1.17
2022-12-16T01:03:39.948Z,-1.30
2022-12-16T01:06:13.278Z,-1.21
2022-12-16T01:08:48.175Z,-1.15
2022-12-16T01:11:17.255Z,-1.16
2022-12-16T01:13:45.514Z,-1.15
2022-12-16T01:16:13.499Z,-1.26
2022-12-16T01:18:42.974Z,-1.33
2022-12-16T01:21:15.791Z,-1.40
2022-12-16T01:23:44.757Z,-1.34
2022-12-16T01:26:20.854Z,-1.43
2022-12-16T01:28:49.664Z,-1.47
2022-12-16T01:31:19.823Z,-1.39
2022-12-16T01:33:49.142Z,-1.33
2022-12-16T01:36:17.585Z,-1.28
2022-12-16T01:38:45.761Z,-1.22
2022-12-16T01:41:15.401Z,-1.24
2022-12-16T01:43:44.996Z,-1.22
2022-12-16T01:46:19.896Z,-1.23
2022-12-16T01:48:54.661Z,-1.23
2022-12-16T01:51:27.822Z,-1.11
2022-12-16T01:54:00.035Z,-0.99
2022-12-16T01:56:31.817Z,-0.87
2022-12-16T01:59:02.903Z,-0.85
2022-12-16T02:01:31.078Z,-0.71
2022-12-16T02:04:04.055Z,-0.55
2022-12-16T02:06:33.013Z,-0.52
2022-12-16T02:09:03.849Z,-0.53
2022-12-16T02:11:58.371Z,-0.51
2022-12-16T02:14:51.529Z,-0.47
2022-12-16T02:17:24.876Z,-0.46
2022-12-16T02:20:37.544Z,-0.43
2022-12-16T02:23:32.220Z,-0.41
2022-12-16T02:26:37.522Z,-0.41
2022-12-16T02:29:24.739Z,-0.35
2022-12-16T02:32:03.524Z,-0.43
2022-12-16T02:34:36.554Z,-0.41
2022-12-16T02:37:15.726Z,-0.31
2022-12-16T02:39:49.640Z,-0.25
2022-12-16T02:42:27.357Z,-0.22
2022-12-16T02:45:02.097Z,-0.24
2022-12-16T02:47:32.613Z,-0.19
2022-12-16T02:50:00.879Z,-0.16
2022-12-16T02:52:31.773Z,-0.09
2022-12-16T02:55:02.550Z,-0.10
2022-12-16T02:57:45.665Z,-0.10
2022-12-16T03:00:18.369Z,-0.04
2022-12-16T03:02:56.518Z,0.00
2022-12-16T03:05:28.469Z,0.04
2022-12-16T03:07:59.807Z,0.08
2022-12-16T03:10:33.849Z,0.14
2022-12-16T03:13:03.818Z,0.13
2022-12-16T03:15:35.965Z,0.20
2022-12-16T03:18:08.760Z,0.20
2022-12-16T03:20:41.444Z,0.20
2022-12-16T03:23:13.912Z,0.32
2022-12-16T03:25:45.239Z,0.38
2022-12-16T03:28:24.987Z,0.42
2022-12-16T03:30:59.480Z,0.46
2022-12-16T03:33:34.413Z,0.51
2022-12-16T03:36:11.040Z,0.51
2022-12-16T03:38:40.865Z,0.50
2022-12-16T03:41:09.745Z,0.53
2022-12-16T03:43:38.738Z,0.53
2022-12-16T03:46:10.765Z,0.48
2022-12-16T03:48:46.837Z,0.51
2022-12-16T03:51:15.912Z,0.49
2022-12-16T03:53:44.188Z,0.66
2022-12-16T03:56:13.284Z,0.65
2022-12-16T03:58:41.857Z,0.65
2022-12-16T04:01:13.399Z,0.65
2022-12-16T04:03:42.787Z,0.63
2022-12-16T04:06:18.901Z,0.54
2022-12-16T04:08:47.520Z,0.57
2022-12-16T04:11:33.950Z,0.56
2022-12-16T04:14:19.478Z,0.67
2022-12-16T04:17:05.151Z,0.63
2022-12-16T04:19:55.831Z,0.60
2022-12-16T04:22:41.602Z,0.57
2022-12-16T04:25:13.138Z,0.47
2022-12-16T04:27:47.357Z,0.47
2022-12-16T04:30:22.802Z,0.57
2022-12-16T04:33:14.068Z,0.52
2022-12-16T04:36:01.044Z,0.52
2022-12-16T04:38:47.056Z,0.60
2022-12-16T04:41:33.219Z,0.60
2022-12-16T04:44:18.757Z,0.73
2022-12-16T04:47:04.805Z,0.78
2022-12-16T04:49:50.293Z,0.73
2022-12-16T04:52:39.666Z,0.77
2022-12-16T04:55:27.177Z,0.81
2022-12-16T04:58:15.287Z,0.83
2022-12-16T05:01:10.246Z,0.77
2022-12-16T05:04:07.675Z,0.86
2022-12-16T05:06:53.210Z,0.89
2022-12-16T05:09:56.570Z,0.88
2022-12-16T05:12:43.875Z,0.86
2022-12-16T05:15:56.337Z,0.92
2022-12-16T05:18:41.715Z,0.91
2022-12-16T05:21:28.485Z,0.89
2022-12-16T05:24:16.046Z,0.94
2022-12-16T05:27:02.767Z,0.85
2022-12-16T05:29:48.706Z,0.86
2022-12-16T05:32:34.210Z,0.81
2022-12-16T05:35:20.525Z,0.84
2022-12-16T05:38:06.198Z,0.80
2022-12-16T05:40:51.679Z,0.72
2022-12-16T05:43:38.823Z,0.68
2022-12-16T05:46:24.477Z,0.63
2022-12-16T05:49:10.008Z,0.61
2022-12-16T05:51:55.467Z,0.58
2022-12-16T05:54:55.589Z,0.51
2022-12-16T05:57:41.282Z,0.48
2022-12-16T06:00:26.293Z,0.45
2022-12-16T06:03:11.808Z,0.44
2022-12-16T06:05:57.655Z,0.39
2022-12-16T06:08:42.927Z,0.38
2022-12-16T06:11:28.104Z,0.37
2022-12-16T06:14:13.390Z,0.37
2022-12-16T06:17:00.706Z,0.34
2022-12-16T06:19:46.611Z,0.33
2022-12-16T06:22:32.294Z,0.24
2022-12-16T06:25:19.831Z,0.24
2022-12-16T06:28:09.796Z,0.14
2022-12-16T06:30:55.503Z,0.14
2022-12-16T06:33:54.682Z,0.13
2022-12-16T06:36:41.031Z,0.10
2022-12-16T06:39:29.631Z,0.04
2022-12-16T06:42:15.137Z,0.02
2022-12-16T06:45:00.843Z,0.00
2022-12-16T06:47:46.175Z,-0.06
2022-12-16T06:50:33.042Z,-0.02
2022-12-16T06:53:18.682Z,-0.07
2022-12-16T06:56:03.999Z,-0.05
2022-12-16T06:58:49.498Z,-0.05
2022-12-16T07:01:35.085Z,-0.09
2022-12-16T07:04:20.650Z,-0.10
2022-12-16T07:07:07.578Z,-0.09
2022-12-16T07:10:04.674Z,-0.17
2022-12-16T07:12:49.950Z,-0.12
2022-12-16T07:15:35.363Z,-0.11
2022-12-16T07:18:20.994Z,-0.12
2022-12-16T07:21:07.545Z,-0.13
2022-12-16T07:23:56.184Z,-0.17
2022-12-16T07:26:47.531Z,-0.09
2022-12-16T07:29:34.230Z,-0.08
2022-12-16T07:32:21.957Z,-0.11
2022-12-16T07:35:09.792Z,-0.14
2022-12-16T07:37:58.730Z,-0.18
2022-12-16T07:40:46.616Z,-0.19
2022-12-16T07:43:32.459Z,-0.17
2022-12-16T07:46:17.840Z,-0.20
2022-12-16T07:49:03.495Z,-0.19
2022-12-16T07:51:50.509Z,-0.19
2022-12-16T07:54:36.895Z,-0.15
2022-12-16T07:57:24.869Z,-0.16
2022-12-16T08:00:11.798Z,-0.17
2022-12-16T08:02:58.985Z,-0.10
2022-12-16T08:05:45.794Z,-0.17
2022-12-16T08:08:31.432Z,-0.16
2022-12-16T08:11:16.829Z,-0.07
2022-12-16T08:14:04.506Z,-0.13
2022-12-16T08:16:50.218Z,-0.18
2022-12-16T08:19:36.538Z,-0.18
2022-12-16T08:22:22.406Z,-0.17
2022-12-16T08:25:08.018Z,-0.19
2022-12-16T08:27:55.766Z,-0.12
2022-12-16T08:30:42.665Z,-0.12
2022-12-16T08:33:28.093Z,-0.14
2022-12-16T08:36:16.119Z,-0.15
2022-12-16T08:39:01.609Z,-0.17
2022-12-16T08:41:47.219Z,-0.23
2022-12-16T08:44:32.631Z,-0.26
2022-12-16T08:47:19.707Z,-0.30
2022-12-16T08:50:05.535Z,-0.15
2022-12-16T08:52:51.175Z,-0.11
2022-12-16T08:55:36.781Z,-0.10
2022-12-16T08:58:22.667Z,-0.07
2022-12-16T09:01:09.873Z,-0.12
2022-12-16T09:04:01.427Z,-0.02
2022-12-16T09:06:47.713Z,0.02
2022-12-16T09:09:33.256Z,-0.06
2022-12-16T09:12:18.599Z,0.01
2022-12-16T09:15:14.077Z,-0.11
2022-12-16T09:17:59.500Z,-0.06
2022-12-16T09:20:58.934Z,-0.09
2022-12-16T09:23:59.660Z,-0.07
2022-12-16T09:26:50.532Z,-0.05
2022-12-16T09:29:43.351Z,-0.05
2022-12-16T09:32:32.638Z,0.00
2022-12-16T09:35:17.964Z,0.07
2022-12-16T09:38:07.270Z,0.02
2022-12-16T09:40:52.504Z,-0.01
2022-12-16T09:43:58.790Z,0.01
2022-12-16T09:46:54.773Z,0.11
2022-12-16T09:49:53.899Z,0.17
2022-12-16T09:52:41.135Z,0.25
2022-12-16T09:55:41.681Z,0.20
2022-12-16T09:58:30.494Z,0.09
2022-12-16T10:01:18.526Z,0.17
2022-12-16T10:04:06.259Z,0.25
2022-12-16T10:07:01.080Z,0.25
2022-12-16T10:09:55.219Z,0.26
2022-12-16T10:12:51.212Z,0.30
2022-12-16T10:15:48.072Z,0.18
2022-12-16T10:18:46.387Z,0.17
2022-12-16T10:21:37.376Z,0.25
2022-12-16T10:24:35.838Z,0.11
2022-12-16T10:27:31.841Z,0.10
2022-12-16T10:30:20.133Z,0.18
2022-12-16T10:33:09.548Z,0.22
2022-12-16T10:36:00.581Z,0.16
2022-12-16T10:38:54.672Z,0.22
2022-12-16T10:41:45.198Z,0.23
2022-12-16T10:44:41.631Z,0.19
2022-12-16T10:47:30.737Z,0.24
2022-12-16T10:50:19.145Z,0.28
2022-12-16T10:53:34.871Z,0.30
2022-12-16T10:56:39.225Z,0.22
2022-12-16T10:59:26.743Z,0.18
2022-12-16T11:02:16.587Z,0.30
2022-12-16T11:05:04.109Z,0.20
2022-12-16T11:07:52.028Z,0.22
2022-12-16T11:10:51.788Z,0.18
2022-12-16T11:13:42.551Z,0.24
2022-12-16T11:16:38.495Z,0.23
2022-12-16T11:19:25.065Z,0.29
2022-12-16T11:22:32.067Z,0.32
2022-12-16T11:25:33.198Z,0.30
2022-12-16T11:28:35.335Z,0.33
2022-12-16T11:31:25.340Z,0.29
2022-12-16T11:34:12.350Z,0.28
2022-12-16T11:37:00.289Z,0.15
2022-12-16T11:39:50.269Z,0.19
2022-12-16T11:42:41.329Z,0.09
2022-12-16T11:45:34.323Z,0.09
2022-12-16T11:48:27.523Z,0.14
2022-12-16T11:51:16.566Z,0.13
2022-12-16T11:54:06.883Z,0.16
2022-12-16T11:57:02.525Z,0.14
2022-12-16T11:59:55.319Z,0.02
2022-12-16T12:02:49.293Z,0.08
2022-12-16T12:05:39.499Z,-0.06
2022-12-16T12:08:34.100Z,-0.10
2022-12-16T12:11:28.610Z,-0.06
2022-12-16T12:14:28.660Z,-0.05
2022-12-16T12:17:26.157Z,-0.08
2022-12-16T12:20:22.943Z,-0.03
2022-12-16T12:23:08.744Z,-0.02
2022-12-16T12:26:02.279Z,0.00
2022-12-16T12:28:59.857Z,-0.02
2022-12-16T12:31:56.876Z,0.18
2022-12-16T12:34:53.826Z,0.25
2022-12-16T12:37:46.976Z,0.17
2022-12-16T12:40:43.738Z,0.16
2022-12-16T12:43:43.212Z,0.13
2022-12-16T12:46:49.042Z,0.23
2022-12-16T12:49:45.109Z,0.29
2022-12-16T12:52:56.563Z,0.21
2022-12-16T12:55:55.570Z,0.15
2022-12-16T12:58:42.514Z,0.17
2022-12-16T13:01:31.714Z,0.12
2022-12-16T13:04:23.069Z,0.17
2022-12-16T13:07:11.765Z,0.19
2022-12-16T13:10:00.564Z,0.19
2022-12-16T13:12:48.632Z,0.09
2022-12-16T13:15:52.993Z,0.06
2022-12-16T13:18:43.616Z,0.08
2022-12-16T13:22:06.842Z,0.11
2022-12-16T13:25:02.014Z,0.16
2022-12-16T13:28:14.016Z,0.16
2022-12-16T13:31:20.230Z,0.10
2022-12-16T13:34:22.788Z,0.14
2022-12-16T13:37:15.632Z,0.25
2022-12-16T13:40:23.053Z,0.26
2022-12-16T13:43:11.841Z,0.21
2022-12-16T13:46:33.314Z,0.23
2022-12-16T13:49:52.379Z,0.18
2022-12-16T13:52:41.070Z,0.18
2022-12-16T13:55:36.079Z,0.21
2022-12-16T13:58:31.647Z,0.10
2022-12-16T14:01:25.400Z,0.15
2022-12-16T14:04:12.052Z,0.31
2022-12-16T14:06:58.945Z,0.25
2022-12-16T14:09:51.517Z,0.15
2022-12-16T14:12:59.417Z,0.22
2022-12-16T14:15:53.341Z,0.29
2022-12-16T14:18:50.435Z,0.33
2022-12-16T14:21:47.395Z,0.20
2022-12-16T14:24:43.478Z,0.14
2022-12-16T14:27:39.788Z,0.11
2022-12-16T14:30:36.687Z,0.31
2022-12-16T14:33:42.647Z,0.27
2022-12-16T14:36:42.186Z,0.23
2022-12-16T14:39:33.012Z,0.15
2022-12-16T14:42:37.274Z,0.05
2022-12-16T14:45:23.703Z,-0.04
2022-12-16T14:48:10.631Z,-0.07
2022-12-16T14:50:56.226Z,-0.02
2022-12-16T14:53:43.095Z,-0.15
2022-12-16T14:56:36.035Z,-0.19
2022-12-16T14:59:42.026Z,-0.24
2022-12-16T15:02:47.062Z,-0.22
2022-12-16T15:05:34.305Z,-0.23
2022-12-16T15:08:20.296Z,-0.23
2022-12-16T15:11:06.728Z,-0.27
2022-12-16T15:13:56.662Z,-0.36
2022-12-16T15:16:55.386Z,-0.37
2022-12-16T15:19:43.575Z,-0.42
2022-12-16T15:22:35.031Z,-0.46
2022-12-16T15:25:21.267Z,-0.53
2022-12-16T15:28:12.888Z,-0.55
2022-12-16T15:31:00.451Z,-0.67
2022-12-16T15:33:48.181Z,-0.91
2022-12-16T15:36:55.438Z,-0.87
2022-12-16T15:39:48.844Z,-0.86
2022-12-16T15:42:39.394Z,-0.98
2022-12-16T15:45:37.583Z,-0.81
2022-12-16T15:48:46.347Z,-0.72
2022-12-16T15:51:54.097Z,-0.75
2022-12-16T15:55:11.649Z,-0.66
2022-12-16T15:58:14.029Z,-0.66
2022-12-16T16:01:00.338Z,-0.70
2022-12-16T16:03:49.786Z,-0.36
2022-12-16T16:06:41.774Z,-0.49
2022-12-16T16:09:35.813Z,-0.52
2022-12-16T16:12:42.394Z,-0.47
2022-12-16T16:15:42.843Z,-0.41
2022-12-16T16:18:33.535Z,-0.39
2022-12-16T16:21:24.630Z,-0.38
2022-12-16T16:24:15.627Z,-0.59
2022-12-16T16:30:04.247Z,-0.49
2022-12-16T16:32:51.263Z,-0.30
2022-12-16T16:35:40.211Z,-0.50
2022-12-16T16:38:36.175Z,-0.33
2022-12-16T16:41:30.113Z,-0.43
2022-12-16T16:44:40.511Z,-0.55
2022-12-16T16:47:42.102Z,-0.36
2022-12-16T16:50:51.665Z,-0.52
2022-12-16T16:53:47.356Z,-0.47
2022-12-16T16:56:55.841Z,-0.40
2022-12-16T16:59:55.090Z,-0.31
2022-12-16T17:02:55.476Z,-0.45
2022-12-16T17:05:41.610Z,-0.57
2022-12-16T17:08:29.371Z,-0.60
2022-12-16T17:11:21.035Z,-0.64
2022-12-16T17:14:11.041Z,-0.51
2022-12-16T17:17:07.370Z,-0.73
2022-12-16T17:19:57.907Z,-0.70
2022-12-16T17:22:59.217Z,-0.55
2022-12-16T17:25:45.965Z,-0.54
2022-12-16T17:28:33.022Z,-0.56
2022-12-16T17:31:18.471Z,-0.60
2022-12-16T17:34:04.161Z,-0.58
2022-12-16T17:36:50.806Z,-0.63
2022-12-16T17:39:50.671Z,-0.56
2022-12-16T17:42:35.911Z,-0.53
2022-12-16T17:45:21.747Z,-0.53
2022-12-16T17:48:07.169Z,-0.61
2022-12-16T17:50:52.821Z,-0.63
2022-12-16T17:53:44.772Z,-0.60
2022-12-16T17:56:31.279Z,-0.59
2022-12-16T17:59:16.734Z,-0.66
2022-12-16T18:02:02.329Z,-0.55
2022-12-16T18:05:03.670Z,-0.59
2022-12-16T18:07:49.287Z,-0.58
2022-12-16T18:10:41.301Z,-0.58
2022-12-16T18:13:26.630Z,-0.50
2022-12-16T18:16:12.116Z,-0.63
2022-12-16T18:19:03.251Z,-0.67
2022-12-16T18:21:48.792Z,-0.63
2022-12-16T18:24:48.585Z,-0.54
2022-12-16T18:27:32.117Z,-0.59
2022-12-16T18:30:17.364Z,-0.53
2022-12-16T18:33:02.892Z,-0.67
2022-12-16T18:35:48.202Z,-0.66
2022-12-16T18:38:33.710Z,-0.79
2022-12-16T18:41:23.284Z,-0.77
2022-12-16T18:44:10.179Z,-0.73
2022-12-16T18:46:55.363Z,-0.77
2022-12-16T18:49:42.181Z,-0.78
2022-12-16T18:52:27.811Z,-0.82
2022-12-16T18:55:14.546Z,-0.76
2022-12-16T18:58:00.166Z,-0.91
2022-12-16T19:00:46.869Z,-0.86
2022-12-16T19:03:32.600Z,-0.88
2022-12-16T19:06:17.967Z,-0.95
2022-12-16T19:09:03.641Z,-1.00
2022-12-16T19:11:49.754Z,-1.06
2022-12-16T19:14:35.132Z,-1.01
2022-12-16T19:17:21.829Z,-0.95
2022-12-16T19:20:07.176Z,-0.97
2022-12-16T19:22:52.585Z,-0.94
2022-12-16T19:25:40.620Z,-0.98
2022-12-16T19:28:45.795Z,-0.91
2022-12-16T19:31:32.963Z,-0.98
2022-12-16T19:34:20.006Z,-1.02
2022-12-16T19:37:05.953Z,-1.02
2022-12-16T19:39:51.857Z,-0.95
2022-12-16T19:42:37.285Z,-1.05
2022-12-16T19:45:23.197Z,-1.10
2022-12-16T19:48:10.822Z,-1.05
2022-12-16T19:50:57.987Z,-1.00
2022-12-16T19:53:43.498Z,-1.07
2022-12-16T19:56:29.119Z,-1.11
2022-12-16T19:59:14.769Z,-1.08
2022-12-16T20:02:00.267Z,-1.08
2022-12-16T20:04:46.293Z,-1.08
2022-12-16T20:07:33.343Z,-1.14
2022-12-16T20:10:20.083Z,-1.28
2022-12-16T20:13:05.497Z,-1.28
2022-12-16T20:15:51.884Z,-1.32
2022-12-16T20:18:37.688Z,-1.35
2022-12-16T20:21:32.453Z,-1.32
2022-12-16T20:24:19.053Z,-1.32
2022-12-16T20:27:04.561Z,-1.34
2022-12-16T20:29:49.953Z,-1.36
2022-12-16T20:32:35.476Z,-1.47
2022-12-16T20:35:26.697Z,-1.49
2022-12-16T20:38:12.016Z,-1.48
2022-12-16T20:40:59.410Z,-1.51
2022-12-16T20:43:48.062Z,-1.57
2022-12-16T20:46:51.772Z,-1.48
2022-12-16T20:49:38.597Z,-1.50
2022-12-16T20:52:24.556Z,-1.46
2022-12-16T20:55:10.005Z,-1.55
2022-12-16T20:57:56.546Z,-1.64
2022-12-16T21:00:48.727Z,-1.63
2022-12-16T21:03:34.504Z,-1.56
2022-12-16T21:06:22.458Z,-1.59
2022-12-16T21:09:07.907Z,-1.63
2022-12-16T21:11:53.483Z,-1.64
2022-12-16T21:14:39.486Z,-1.57
2022-12-16T21:17:24.929Z,-1.65
2022-12-16T21:20:10.269Z,-1.69
2022-12-16T21:22:55.778Z,-1.70
2022-12-16T21:25:41.902Z,-1.70
2022-12-16T21:28:35.271Z,-1.63
2022-12-16T21:31:22.018Z,-1.76
2022-12-16T21:34:07.654Z,-1.76
2022-12-16T21:36:53.569Z,-1.85
2022-12-16T21:39:42.641Z,-1.75
2022-12-16T21:45:33.155Z,-1.70
2022-12-16T21:48:19.953Z,-1.72
2022-12-16T21:51:10.885Z,-1.73
2022-12-16T21:53:56.797Z,-1.74
2022-12-16T21:56:42.638Z,-1.80
2022-12-16T21:59:28.166Z,-1.78
2022-12-16T22:02:14.110Z,-1.79
2022-12-16T22:05:01.050Z,-1.91
2022-12-16T22:07:46.700Z,-1.96
2022-12-16T22:10:34.089Z,-1.93
2022-12-16T22:13:19.506Z,-1.86
2022-12-16T22:16:13.683Z,-1.83
2022-12-16T22:19:13.868Z,-1.80
2022-12-16T22:22:02.803Z,-1.80
2022-12-16T22:24:48.242Z,-1.83
2022-12-16T22:27:33.597Z,-1.96
2022-12-16T22:30:24.151Z,-1.90
2022-12-16T22:33:11.534Z,-1.94
2022-12-16T22:36:01.692Z,-1.95
2022-12-16T22:38:51.292Z,-1.94
2022-12-16T22:41:37.558Z,-1.89
2022-12-16T22:44:23.356Z,-1.85
2022-12-16T22:47:08.923Z,-1.94
2022-12-16T22:49:56.001Z,-1.94
2022-12-16T22:52:41.590Z,-1.87
2022-12-16T22:55:31.630Z,-1.96
2022-12-16T22:58:17.060Z,-2.01
2022-12-16T23:01:03.853Z,-2.00
2022-12-16T23:04:01.707Z,-2.06
2022-12-16T23:06:47.076Z,-2.09
2022-12-16T23:09:32.748Z,-2.16
2022-12-16T23:12:19.639Z,-2.12
2022-12-16T23:15:05.122Z,-2.13
2022-12-16T23:17:50.579Z,-2.16
2022-12-16T23:20:35.130Z,-2.18
2022-12-16T23:23:20.730Z,-2.15
2022-12-16T23:26:14.363Z,-2.14
2022-12-16T23:29:23.105Z,-2.11
2022-12-16T23:32:20.064Z,-2.12
2022-12-16T23:35:05.555Z,-2.05
2022-12-16T23:37:50.887Z,-2.05
2022-12-16T23:40:36.427Z,-2.00
2022-12-16T23:43:28.057Z,-2.02
2022-12-16T23:46:14.608Z,-2.00
2022-12-16T23:49:00.014Z,-2.02
2022-12-16T23:51:45.564Z,-2.05
2022-12-16T23:54:30.814Z,-2.08
2022-12-16T23:57:21.564Z,-2.08
